ANZ607 NZWN-NZQN
Flight info
| Callsign | ANZ607 |
|---|---|
| Flight time | 1h 0m |
| Altitude | 34000 |
| Route | SABDA Y622 MESIX H159 CH Y266 ELRUV |
| Aircraft | A320/M-SDE3FGHIRWY/LB1 |
Departure
| Time | 2026-05-08 00:17 |
|---|---|
| Airport | Wellington International Airport (NZWN) |
Arrival
| Time | 2026-05-08 01:17 |
|---|---|
| Airport | Queenstown Airport (NZQN) |
| Time | Latitude | Longitude | Altitude | Speed | Heading |
|---|---|---|---|---|---|
| 2026-05-07 23:59 | -41.32983 | 174.80974 | 26 ft | 0 kts | 158° |
| 2026-05-08 00:10 | -41.32974 | 174.80969 | 26 ft | 3 kts | 162° |
| 2026-05-08 00:11 | -41.32951 | 174.80963 | 26 ft | 3 kts | 181° |
| 2026-05-08 00:11 | -41.32930 | 174.80968 | 26 ft | 3 kts | 211° |
| 2026-05-08 00:11 | -41.32916 | 174.80986 | 26 ft | 3 kts | 264° |
| 2026-05-08 00:11 | -41.32915 | 174.80993 | 26 ft | 0 kts | 272° |
| 2026-05-08 00:14 | -41.32914 | 174.80966 | 26 ft | 5 kts | 272° |
| 2026-05-08 00:14 | -41.32919 | 174.80897 | 26 ft | 9 kts | 241° |
| 2026-05-08 00:14 | -41.32961 | 174.80875 | 26 ft | 12 kts | 187° |
| 2026-05-08 00:15 | -41.33056 | 174.80869 | 26 ft | 16 kts | 181° |
| 2026-05-08 00:15 | -41.33214 | 174.80855 | 26 ft | 16 kts | 204° |
| 2026-05-08 00:15 | -41.33305 | 174.80777 | 26 ft | 18 kts | 181° |
| 2026-05-08 00:15 | -41.33435 | 174.80770 | 26 ft | 20 kts | 183° |
| 2026-05-08 00:16 | -41.33515 | 174.80723 | 26 ft | 19 kts | 239° |
| 2026-05-08 00:16 | -41.33497 | 174.80638 | 26 ft | 7 kts | 359° |
| 2026-05-08 00:16 | -41.33434 | 174.80640 | 26 ft | 19 kts | 2° |
| 2026-05-08 00:16 | -41.33033 | 174.80670 | 27 ft | 92 kts | 2° |
| 2026-05-08 00:17 | -41.32229 | 174.80728 | 250 ft | 124 kts | 5° |
| 2026-05-08 00:17 | -41.31357 | 174.80792 | 969 ft | 128 kts | 6° |
| 2026-05-08 00:17 | -41.30466 | 174.80847 | 1729 ft | 129 kts | 360° |
| 2026-05-08 00:17 | -41.29566 | 174.80900 | 2334 ft | 134 kts | 358° |
| 2026-05-08 00:18 | -41.28566 | 174.80958 | 2604 ft | 154 kts | 357° |
| 2026-05-08 00:18 | -41.27425 | 174.81003 | 2949 ft | 170 kts | 352° |
| 2026-05-08 00:18 | -41.26256 | 174.80662 | 3578 ft | 174 kts | 345° |
| 2026-05-08 00:18 | -41.25081 | 174.80254 | 4366 ft | 175 kts | 343° |
| 2026-05-08 00:19 | -41.23924 | 174.79833 | 5219 ft | 172 kts | 343° |
| 2026-05-08 00:19 | -41.22743 | 174.79425 | 5890 ft | 180 kts | 343° |
| 2026-05-08 00:19 | -41.21497 | 174.78974 | 6510 ft | 189 kts | 343° |
| 2026-05-08 00:19 | -41.20214 | 174.78514 | 7265 ft | 193 kts | 343° |
| 2026-05-08 00:20 | -41.18909 | 174.78050 | 8053 ft | 195 kts | 343° |
| 2026-05-08 00:20 | -41.17586 | 174.77583 | 8822 ft | 198 kts | 343° |
| 2026-05-08 00:20 | -41.16248 | 174.77096 | 9580 ft | 201 kts | 339° |
| 2026-05-08 00:20 | -41.15127 | 174.75995 | 10246 ft | 209 kts | 308° |
| 2026-05-08 00:21 | -41.14718 | 174.74090 | 10948 ft | 230 kts | 274° |
| 2026-05-08 00:21 | -41.15333 | 174.72031 | 11658 ft | 256 kts | 243° |
| 2026-05-08 00:21 | -41.16521 | 174.70210 | 12418 ft | 266 kts | 233° |
| 2026-05-08 00:21 | -41.18162 | 174.68908 | 13133 ft | 290 kts | 201° |
| 2026-05-08 00:22 | -41.20259 | 174.68733 | 13523 ft | 320 kts | 175° |
| 2026-05-08 00:22 | -41.22543 | 174.69192 | 13719 ft | 343 kts | 174° |
| 2026-05-08 00:22 | -41.24992 | 174.69651 | 13889 ft | 367 kts | 175° |
| 2026-05-08 00:22 | -41.27596 | 174.70107 | 14016 ft | 386 kts | 175° |
| 2026-05-08 00:23 | -41.30301 | 174.70569 | 14470 ft | 395 kts | 175° |
| 2026-05-08 00:23 | -41.33042 | 174.71029 | 15012 ft | 399 kts | 176° |
| 2026-05-08 00:23 | -41.35807 | 174.71362 | 15617 ft | 398 kts | 184° |
| 2026-05-08 00:23 | -41.38549 | 174.70991 | 16179 ft | 396 kts | 195° |
| 2026-05-08 00:24 | -41.41275 | 174.70362 | 16778 ft | 399 kts | 195° |
| 2026-05-08 00:24 | -41.44020 | 174.69722 | 17386 ft | 401 kts | 195° |
| 2026-05-08 00:24 | -41.46780 | 174.69076 | 18001 ft | 404 kts | 195° |
| 2026-05-08 00:24 | -41.49492 | 174.68170 | 18490 ft | 400 kts | 206° |
| 2026-05-08 00:25 | -41.51974 | 174.66637 | 19024 ft | 397 kts | 213° |
| 2026-05-08 00:25 | -41.54436 | 174.64922 | 19545 ft | 401 kts | 214° |
| 2026-05-08 00:25 | -41.56920 | 174.63207 | 20062 ft | 404 kts | 213° |
| 2026-05-08 00:25 | -41.59427 | 174.61477 | 20583 ft | 406 kts | 213° |
| 2026-05-08 00:26 | -41.61947 | 174.59731 | 21088 ft | 409 kts | 213° |
| 2026-05-08 00:26 | -41.64481 | 174.57969 | 21574 ft | 411 kts | 213° |
| 2026-05-08 00:26 | -41.67031 | 174.56190 | 22052 ft | 414 kts | 213° |
| 2026-05-08 00:26 | -41.69591 | 174.54400 | 22532 ft | 416 kts | 213° |
| 2026-05-08 00:27 | -41.72166 | 174.52594 | 23017 ft | 419 kts | 213° |
| 2026-05-08 00:27 | -41.74759 | 174.50776 | 23464 ft | 421 kts | 213° |
| 2026-05-08 00:27 | -41.77363 | 174.48954 | 23855 ft | 424 kts | 213° |
| 2026-05-08 00:27 | -41.79936 | 174.47037 | 24241 ft | 422 kts | 219° |
| 2026-05-08 00:28 | -41.82374 | 174.44832 | 24629 ft | 423 kts | 220° |
| 2026-05-08 00:28 | -41.84812 | 174.42610 | 25026 ft | 425 kts | 220° |
| 2026-05-08 00:28 | -41.87232 | 174.40401 | 25409 ft | 428 kts | 220° |
| 2026-05-08 00:28 | -41.89699 | 174.38145 | 25777 ft | 430 kts | 220° |
| 2026-05-08 00:29 | -41.92183 | 174.35881 | 26145 ft | 432 kts | 220° |
| 2026-05-08 00:29 | -41.94678 | 174.33610 | 26542 ft | 435 kts | 220° |
| 2026-05-08 00:29 | -41.97190 | 174.31323 | 26900 ft | 437 kts | 220° |
| 2026-05-08 00:29 | -41.99716 | 174.29017 | 27251 ft | 439 kts | 219° |
| 2026-05-08 00:30 | -42.02246 | 174.26704 | 27630 ft | 441 kts | 219° |
| 2026-05-08 00:30 | -42.04791 | 174.24377 | 28014 ft | 443 kts | 219° |
| 2026-05-08 00:30 | -42.07343 | 174.22038 | 28372 ft | 446 kts | 220° |
| 2026-05-08 00:30 | -42.09917 | 174.19674 | 28674 ft | 449 kts | 220° |
| 2026-05-08 00:31 | -42.12504 | 174.17296 | 29028 ft | 452 kts | 220° |
| 2026-05-08 00:31 | -42.15109 | 174.14899 | 29381 ft | 454 kts | 220° |
| 2026-05-08 00:31 | -42.17726 | 174.12493 | 29747 ft | 456 kts | 220° |
| 2026-05-08 00:31 | -42.20352 | 174.10078 | 30060 ft | 458 kts | 220° |
| 2026-05-08 00:32 | -42.22992 | 174.07644 | 30359 ft | 460 kts | 220° |
| 2026-05-08 00:32 | -42.25639 | 174.05195 | 30662 ft | 462 kts | 220° |
| 2026-05-08 00:32 | -42.28266 | 174.02759 | 30973 ft | 464 kts | 220° |
| 2026-05-08 00:32 | -42.30932 | 174.00292 | 31325 ft | 464 kts | 221° |
| 2026-05-08 00:33 | -42.33600 | 173.97828 | 31736 ft | 464 kts | 220° |
| 2026-05-08 00:33 | -42.36259 | 173.95371 | 32161 ft | 463 kts | 220° |
| 2026-05-08 00:33 | -42.38908 | 173.92914 | 32586 ft | 461 kts | 221° |
| 2026-05-08 00:33 | -42.41553 | 173.90457 | 33003 ft | 461 kts | 220° |
| 2026-05-08 00:34 | -42.44196 | 173.88006 | 33392 ft | 461 kts | 220° |
| 2026-05-08 00:34 | -42.46839 | 173.85546 | 33655 ft | 461 kts | 221° |
| 2026-05-08 00:34 | -42.52095 | 173.80645 | 33692 ft | 456 kts | 221° |
| 2026-05-08 00:35 | -42.57317 | 173.75761 | 33676 ft | 456 kts | 221° |
| 2026-05-08 00:35 | -42.62538 | 173.70872 | 33673 ft | 456 kts | 221° |
| 2026-05-08 00:36 | -42.67752 | 173.65972 | 33673 ft | 455 kts | 221° |
| 2026-05-08 00:36 | -42.72932 | 173.61100 | 33675 ft | 456 kts | 221° |
| 2026-05-08 00:37 | -42.78150 | 173.56188 | 33667 ft | 456 kts | 221° |
| 2026-05-08 00:38 | -42.85968 | 173.48800 | 33692 ft | 456 kts | 222° |
| 2026-05-08 00:38 | -42.91177 | 173.43871 | 33674 ft | 456 kts | 221° |
| 2026-05-08 00:39 | -42.96384 | 173.38935 | 33666 ft | 456 kts | 222° |
| 2026-05-08 00:39 | -43.01585 | 173.33980 | 33659 ft | 456 kts | 222° |
| 2026-05-08 00:40 | -43.06794 | 173.29006 | 33682 ft | 456 kts | 222° |
| 2026-05-08 00:40 | -43.11643 | 173.23589 | 33664 ft | 442 kts | 236° |
| 2026-05-08 00:41 | -43.15323 | 173.16982 | 33657 ft | 435 kts | 241° |
| 2026-05-08 00:41 | -43.18922 | 173.10310 | 33656 ft | 435 kts | 241° |
| 2026-05-08 00:42 | -43.22523 | 173.03649 | 33666 ft | 435 kts | 241° |
| 2026-05-08 00:42 | -43.26116 | 172.96991 | 33661 ft | 434 kts | 242° |
| 2026-05-08 00:43 | -43.29677 | 172.90379 | 33645 ft | 433 kts | 242° |
| 2026-05-08 00:43 | -43.33243 | 172.83725 | 33628 ft | 433 kts | 242° |
| 2026-05-08 00:44 | -43.36802 | 172.77062 | 33619 ft | 432 kts | 242° |
| 2026-05-08 00:44 | -43.40357 | 172.70395 | 33620 ft | 432 kts | 242° |
| 2026-05-08 00:45 | -43.43912 | 172.63720 | 33601 ft | 432 kts | 242° |
| 2026-05-08 00:45 | -43.47468 | 172.57037 | 33592 ft | 432 kts | 242° |
| 2026-05-08 00:46 | -43.50928 | 172.50290 | 33586 ft | 426 kts | 248° |
| 2026-05-08 00:46 | -43.53904 | 172.43230 | 33595 ft | 426 kts | 248° |
| 2026-05-08 00:47 | -43.56878 | 172.36158 | 33615 ft | 426 kts | 248° |
| 2026-05-08 00:47 | -43.59857 | 172.29082 | 33612 ft | 426 kts | 249° |
| 2026-05-08 00:48 | -43.62825 | 172.22011 | 33599 ft | 426 kts | 249° |
| 2026-05-08 00:48 | -43.65784 | 172.14928 | 33587 ft | 426 kts | 249° |
| 2026-05-08 00:49 | -43.68723 | 172.07889 | 33581 ft | 426 kts | 249° |
| 2026-05-08 00:49 | -43.71679 | 172.00790 | 33585 ft | 426 kts | 249° |
| 2026-05-08 00:50 | -43.74639 | 171.93667 | 33585 ft | 428 kts | 250° |
| 2026-05-08 00:50 | -43.77601 | 171.86516 | 33571 ft | 428 kts | 250° |
| 2026-05-08 00:51 | -43.80556 | 171.79350 | 33566 ft | 429 kts | 250° |
| 2026-05-08 00:51 | -43.83500 | 171.72209 | 33566 ft | 429 kts | 250° |
| 2026-05-08 00:52 | -43.86508 | 171.65045 | 33596 ft | 431 kts | 249° |
| 2026-05-08 00:52 | -43.89579 | 171.57896 | 33583 ft | 432 kts | 249° |
| 2026-05-08 00:53 | -43.92649 | 171.50741 | 33591 ft | 432 kts | 249° |
| 2026-05-08 00:53 | -43.95696 | 171.43555 | 33587 ft | 432 kts | 249° |
| 2026-05-08 00:54 | -43.98737 | 171.36352 | 33589 ft | 432 kts | 249° |
| 2026-05-08 00:54 | -44.01781 | 171.29150 | 33589 ft | 432 kts | 249° |
| 2026-05-08 00:55 | -44.04815 | 171.21944 | 33609 ft | 432 kts | 250° |
| 2026-05-08 00:55 | -44.07846 | 171.14732 | 33599 ft | 432 kts | 250° |
| 2026-05-08 00:56 | -44.10855 | 171.07560 | 33591 ft | 432 kts | 250° |
| 2026-05-08 00:56 | -44.13885 | 171.00312 | 33589 ft | 433 kts | 250° |
| 2026-05-08 00:57 | -44.16906 | 170.93057 | 33581 ft | 433 kts | 250° |
| 2026-05-08 00:57 | -44.19926 | 170.85792 | 33612 ft | 434 kts | 251° |
| 2026-05-08 00:58 | -44.22939 | 170.78535 | 33134 ft | 429 kts | 251° |
| 2026-05-08 00:58 | -44.24427 | 170.74945 | 32597 ft | 427 kts | 250° |
| 2026-05-08 00:58 | -44.25907 | 170.71370 | 32097 ft | 424 kts | 251° |
| 2026-05-08 00:58 | -44.27377 | 170.67812 | 31584 ft | 422 kts | 250° |
| 2026-05-08 00:59 | -44.28835 | 170.64271 | 31079 ft | 420 kts | 250° |
| 2026-05-08 00:59 | -44.30282 | 170.60750 | 30588 ft | 416 kts | 250° |
| 2026-05-08 00:59 | -44.31717 | 170.57252 | 30104 ft | 415 kts | 250° |
| 2026-05-08 00:59 | -44.33150 | 170.53760 | 29652 ft | 414 kts | 250° |
| 2026-05-08 01:00 | -44.34579 | 170.50272 | 29097 ft | 412 kts | 250° |
| 2026-05-08 01:00 | -44.35996 | 170.46808 | 28654 ft | 408 kts | 249° |
| 2026-05-08 01:00 | -44.37386 | 170.43413 | 28210 ft | 406 kts | 250° |
| 2026-05-08 01:00 | -44.38782 | 170.40004 | 27769 ft | 403 kts | 250° |
| 2026-05-08 01:01 | -44.40174 | 170.36599 | 27305 ft | 402 kts | 249° |
| 2026-05-08 01:01 | -44.41553 | 170.33208 | 26859 ft | 401 kts | 249° |
| 2026-05-08 01:01 | -44.42933 | 170.29815 | 26416 ft | 401 kts | 249° |
| 2026-05-08 01:01 | -44.44310 | 170.26423 | 25953 ft | 400 kts | 249° |
| 2026-05-08 01:02 | -44.45685 | 170.23036 | 25483 ft | 400 kts | 249° |
| 2026-05-08 01:02 | -44.47058 | 170.19657 | 25010 ft | 400 kts | 248° |
| 2026-05-08 01:02 | -44.47987 | 170.17369 | 24674 ft | 399 kts | 248° |
| 2026-05-08 01:02 | -44.49359 | 170.13987 | 24199 ft | 400 kts | 248° |
| 2026-05-08 01:03 | -44.50716 | 170.10626 | 23702 ft | 402 kts | 248° |
| 2026-05-08 01:03 | -44.52089 | 170.07217 | 23184 ft | 402 kts | 248° |
| 2026-05-08 01:03 | -44.53463 | 170.03808 | 22727 ft | 399 kts | 248° |
| 2026-05-08 01:03 | -44.54829 | 170.00432 | 22176 ft | 397 kts | 248° |
| 2026-05-08 01:04 | -44.56177 | 169.97097 | 21861 ft | 388 kts | 249° |
| 2026-05-08 01:04 | -44.57502 | 169.93812 | 21389 ft | 386 kts | 248° |
| 2026-05-08 01:04 | -44.58814 | 169.90545 | 20956 ft | 383 kts | 249° |
| 2026-05-08 01:04 | -44.60110 | 169.87302 | 20502 ft | 380 kts | 249° |
| 2026-05-08 01:05 | -44.61400 | 169.84068 | 19997 ft | 379 kts | 249° |
| 2026-05-08 01:05 | -44.62687 | 169.80846 | 19505 ft | 378 kts | 249° |
| 2026-05-08 01:05 | -44.63968 | 169.77640 | 19014 ft | 374 kts | 249° |
| 2026-05-08 01:05 | -44.65233 | 169.74479 | 18567 ft | 370 kts | 249° |
| 2026-05-08 01:06 | -44.66489 | 169.71334 | 18100 ft | 368 kts | 249° |
| 2026-05-08 01:06 | -44.67740 | 169.68195 | 17605 ft | 367 kts | 249° |
| 2026-05-08 01:06 | -44.68970 | 169.65106 | 17072 ft | 365 kts | 249° |
| 2026-05-08 01:06 | -44.70201 | 169.62022 | 16549 ft | 357 kts | 249° |
| 2026-05-08 01:07 | -44.71405 | 169.59010 | 16035 ft | 348 kts | 249° |
| 2026-05-08 01:07 | -44.72574 | 169.56081 | 15496 ft | 339 kts | 249° |
| 2026-05-08 01:07 | -44.73715 | 169.53203 | 14931 ft | 335 kts | 249° |
| 2026-05-08 01:07 | -44.74835 | 169.50361 | 14374 ft | 329 kts | 249° |
| 2026-05-08 01:08 | -44.75943 | 169.47546 | 13808 ft | 329 kts | 249° |
| 2026-05-08 01:08 | -44.77056 | 169.44713 | 13270 ft | 333 kts | 250° |
| 2026-05-08 01:08 | -44.78178 | 169.41850 | 12665 ft | 336 kts | 249° |
| 2026-05-08 01:08 | -44.79312 | 169.38952 | 12066 ft | 339 kts | 249° |
| 2026-05-08 01:09 | -44.80453 | 169.36047 | 11484 ft | 340 kts | 249° |
| 2026-05-08 01:09 | -44.81531 | 169.33101 | 10915 ft | 334 kts | 257° |
| 2026-05-08 01:09 | -44.82121 | 169.30016 | 10643 ft | 319 kts | 264° |
| 2026-05-08 01:09 | -44.82622 | 169.27013 | 10401 ft | 311 kts | 264° |
| 2026-05-08 01:10 | -44.83115 | 169.24104 | 10164 ft | 306 kts | 264° |
| 2026-05-08 01:10 | -44.83606 | 169.21182 | 9921 ft | 307 kts | 264° |
| 2026-05-08 01:10 | -44.84093 | 169.18269 | 9673 ft | 302 kts | 264° |
| 2026-05-08 01:10 | -44.84728 | 169.15440 | 9436 ft | 306 kts | 251° |
| 2026-05-08 01:11 | -44.85873 | 169.12883 | 9168 ft | 308 kts | 242° |
| 2026-05-08 01:11 | -44.87125 | 169.10449 | 8880 ft | 308 kts | 235° |
| 2026-05-08 01:11 | -44.88787 | 169.08505 | 8511 ft | 317 kts | 214° |
| 2026-05-08 01:11 | -44.90866 | 169.07422 | 8152 ft | 321 kts | 197° |
| 2026-05-08 01:12 | -44.93034 | 169.06674 | 7783 ft | 319 kts | 191° |
| 2026-05-08 01:12 | -44.95213 | 169.06601 | 7431 ft | 308 kts | 176° |
| 2026-05-08 01:12 | -44.97300 | 169.06814 | 7068 ft | 293 kts | 176° |
| 2026-05-08 01:12 | -44.99288 | 169.06773 | 6702 ft | 280 kts | 193° |
| 2026-05-08 01:13 | -45.01065 | 169.05836 | 6336 ft | 268 kts | 214° |
| 2026-05-08 01:13 | -45.02439 | 169.04159 | 5969 ft | 256 kts | 233° |
| 2026-05-08 01:13 | -45.03303 | 169.02034 | 5588 ft | 250 kts | 253° |
| 2026-05-08 01:13 | -45.03640 | 168.99653 | 5224 ft | 248 kts | 270° |
| 2026-05-08 01:14 | -45.03495 | 168.97244 | 4834 ft | 245 kts | 287° |
| 2026-05-08 01:14 | -45.02912 | 168.95034 | 4457 ft | 236 kts | 300° |
| 2026-05-08 01:14 | -45.02066 | 168.93076 | 4098 ft | 231 kts | 304° |
| 2026-05-08 01:14 | -45.01222 | 168.91164 | 3729 ft | 228 kts | 303° |
| 2026-05-08 01:15 | -45.00396 | 168.89273 | 3325 ft | 225 kts | 299° |
| 2026-05-08 01:15 | -44.99913 | 168.87231 | 2936 ft | 215 kts | 277° |
| 2026-05-08 01:15 | -44.99980 | 168.85177 | 2634 ft | 204 kts | 259° |
| 2026-05-08 01:15 | -45.00267 | 168.83275 | 2305 ft | 192 kts | 256° |
| 2026-05-08 01:16 | -45.00652 | 168.81579 | 2181 ft | 170 kts | 251° |
| 2026-05-08 01:16 | -45.00975 | 168.80004 | 1926 ft | 166 kts | 261° |
| 2026-05-08 01:16 | -45.01217 | 168.78465 | 1694 ft | 157 kts | 256° |
| 2026-05-08 01:16 | -45.01474 | 168.76990 | 1405 ft | 151 kts | 259° |
| 2026-05-08 01:17 | -45.01691 | 168.75548 | 1179 ft | 149 kts | 258° |
| 2026-05-08 01:17 | -45.01878 | 168.74352 | 1169 ft | 100 kts | 257° |
| 2026-05-08 01:17 | -45.01969 | 168.73775 | 1168 ft | 28 kts | 257° |
| 2026-05-08 01:17 | -45.02012 | 168.73557 | 1164 ft | 17 kts | 244° |
| 2026-05-08 01:18 | -45.01998 | 168.73523 | 1162 ft | 1 kts | 61° |
| 2026-05-08 01:18 | -45.01995 | 168.73555 | 1166 ft | 6 kts | 82° |
| 2026-05-08 01:18 | -45.01989 | 168.73623 | 1167 ft | 8 kts | 82° |
| 2026-05-08 01:18 | -45.01978 | 168.73715 | 1168 ft | 11 kts | 79° |
| 2026-05-08 01:19 | -45.01960 | 168.73833 | 1168 ft | 14 kts | 78° |
| 2026-05-08 01:19 | -45.01936 | 168.73990 | 1168 ft | 15 kts | 81° |
| 2026-05-08 01:19 | -45.01964 | 168.74097 | 1164 ft | 12 kts | 173° |
| 2026-05-08 01:19 | -45.02043 | 168.74035 | 1163 ft | 12 kts | 241° |
| 2026-05-08 01:20 | -45.02082 | 168.73982 | 1164 ft | 3 kts | 204° |
| 2026-05-08 01:20 | -45.02105 | 168.73967 | 1164 ft | 2 kts | 205° |
| 2026-05-08 01:20 | -45.02113 | 168.73962 | 1164 ft | 0 kts | 205° |